Terminal Aerodrome Forecast
Issued by NWS

Home | Current Version | Previous Version | Text Only | Print | Product List | Glossary On
Versions: 1 2 3 4 5 6 7 8 9 10 11 12 13 14 15
000
FTUS43 KMQT 250538
TAFCMX
TAF
KCMX 250538Z 2506/2606 10018G31KT 1SM -SN OVC020 WS010/12040KT
     FM250700 10012G20KT 1/2SM SN OVC008
     FM251100 21005KT 1 1/2SM -SN OVC008
     FM251300 25012G19KT 5SM -SN OVC008
     FM251500 27028G42KT P6SM BKN015
     FM251800 27030G45KT P6SM BKN020
     FM260000 26018G30KT P6SM BKN045=

USA.gov is the U.S. government's official web portal to all federal, state and local government web resources and services.